sensor_id;sensor_type;location;lat;lon;timestamp;P1;durP1;ratioP1;P2;durP2;ratioP2
3953;SDS011;1991;48.682;9.030;2023-05-07T00:01:40;2.90;;;2.30;;
3953;SDS011;1991;48.682;9.030;2023-05-07T00:04:06;3.03;;;2.45;;
3953;SDS011;1991;48.682;9.030;2023-05-07T00:06:32;6.43;;;2.50;;
3953;SDS011;1991;48.682;9.030;2023-05-07T00:08:58;2.40;;;2.20;;
3953;SDS011;1991;48.682;9.030;2023-05-07T00:11:25;2.63;;;2.20;;
3953;SDS011;1991;48.682;9.030;2023-05-07T00:13:52;5.18;;;2.40;;
3953;SDS011;1991;48.682;9.030;2023-05-07T00:16:17;2.63;;;2.30;;
3953;SDS011;1991;48.682;9.030;2023-05-07T00:18:43;4.65;;;2.47;;
3953;SDS011;1991;48.682;9.030;2023-05-07T00:21:09;2.65;;;2.45;;
3953;SDS011;1991;48.682;9.030;2023-05-07T00:23:34;4.40;;;2.70;;
3953;SDS011;1991;48.682;9.030;2023-05-07T00:26:00;3.30;;;2.40;;
3953;SDS011;1991;48.682;9.030;2023-05-07T00:28:26;4.80;;;2.28;;
3953;SDS011;1991;48.682;9.030;2023-05-07T00:30:52;5.70;;;2.50;;
3953;SDS011;1991;48.682;9.030;2023-05-07T00:33:18;2.60;;;2.25;;
3953;SDS011;1991;48.682;9.030;2023-05-07T00:35:45;3.75;;;2.35;;
3953;SDS011;1991;48.682;9.030;2023-05-07T00:38:11;2.47;;;2.22;;
3953;SDS011;1991;48.682;9.030;2023-05-07T00:40:37;3.65;;;2.33;;
3953;SDS011;1991;48.682;9.030;2023-05-07T00:43:06;2.08;;;1.85;;
3953;SDS011;1991;48.682;9.030;2023-05-07T00:45:32;3.00;;;2.70;;
3953;SDS011;1991;48.682;9.030;2023-05-07T00:48:01;3.22;;;2.50;;
3953;SDS011;1991;48.682;9.030;2023-05-07T00:50:27;3.88;;;2.25;;
3953;SDS011;1991;48.682;9.030;2023-05-07T00:52:54;3.22;;;2.13;;
3953;SDS011;1991;48.682;9.030;2023-05-07T00:55:21;3.42;;;2.42;;
3953;SDS011;1991;48.682;9.030;2023-05-07T00:57:47;2.95;;;2.20;;
3953;SDS011;1991;48.682;9.030;2023-05-07T01:00:16;2.70;;;2.40;;
3953;SDS011;1991;48.682;9.030;2023-05-07T01:02:43;2.78;;;2.33;;
3953;SDS011;1991;48.682;9.030;2023-05-07T01:05:09;4.28;;;2.20;;
3953;SDS011;1991;48.682;9.030;2023-05-07T01:07:40;4.28;;;2.70;;
3953;SDS011;1991;48.682;9.030;2023-05-07T01:10:07;5.45;;;2.60;;
3953;SDS011;1991;48.682;9.030;2023-05-07T01:12:34;6.72;;;2.50;;
3953;SDS011;1991;48.682;9.030;2023-05-07T01:15:03;3.45;;;2.33;;
3953;SDS011;1991;48.682;9.030;2023-05-07T01:17:33;4.20;;;2.10;;
3953;SDS011;1991;48.682;9.030;2023-05-07T01:20:06;3.25;;;2.10;;
3953;SDS011;1991;48.682;9.030;2023-05-07T01:22:36;3.75;;;2.65;;
3953;SDS011;1991;48.682;9.030;2023-05-07T01:25:03;6.05;;;2.47;;
3953;SDS011;1991;48.682;9.030;2023-05-07T01:27:29;3.65;;;2.10;;
3953;SDS011;1991;48.682;9.030;2023-05-07T01:29:55;2.40;;;2.20;;
3953;SDS011;1991;48.682;9.030;2023-05-07T01:32:27;2.35;;;2.13;;
3953;SDS011;1991;48.682;9.030;2023-05-07T01:38:19;4.65;;;2.40;;
3953;SDS011;1991;48.682;9.030;2023-05-07T01:40:47;2.35;;;2.15;;
3953;SDS011;1991;48.682;9.030;2023-05-07T01:43:13;2.90;;;2.58;;
3953;SDS011;1991;48.682;9.030;2023-05-07T01:45:39;5.65;;;2.58;;
3953;SDS011;1991;48.682;9.030;2023-05-07T01:48:05;3.42;;;2.67;;
3953;SDS011;1991;48.682;9.030;2023-05-07T01:50:33;7.07;;;2.53;;
3953;SDS011;1991;48.682;9.030;2023-05-07T01:52:59;3.38;;;2.53;;
3953;SDS011;1991;48.682;9.030;2023-05-07T01:55:27;4.05;;;2.50;;
3953;SDS011;1991;48.682;9.030;2023-05-07T01:57:53;2.95;;;1.95;;
3953;SDS011;1991;48.682;9.030;2023-05-07T02:00:19;5.72;;;2.50;;
3953;SDS011;1991;48.682;9.030;2023-05-07T02:02:44;3.70;;;2.65;;
3953;SDS011;1991;48.682;9.030;2023-05-07T02:05:10;3.33;;;2.63;;
3953;SDS011;1991;48.682;9.030;2023-05-07T02:07:36;5.68;;;2.25;;
3953;SDS011;1991;48.682;9.030;2023-05-07T02:10:02;4.03;;;2.50;;
3953;SDS011;1991;48.682;9.030;2023-05-07T02:12:28;5.93;;;2.55;;
3953;SDS011;1991;48.682;9.030;2023-05-07T02:14:53;2.42;;;2.22;;
3953;SDS011;1991;48.682;9.030;2023-05-07T02:17:19;3.20;;;2.25;;
3953;SDS011;1991;48.682;9.030;2023-05-07T02:19:45;4.30;;;2.90;;
3953;SDS011;1991;48.682;9.030;2023-05-07T02:22:10;2.60;;;2.20;;
3953;SDS011;1991;48.682;9.030;2023-05-07T02:24:36;2.58;;;2.38;;
3953;SDS011;1991;48.682;9.030;2023-05-07T02:27:02;3.78;;;2.53;;
3953;SDS011;1991;48.682;9.030;2023-05-07T02:29:28;4.78;;;2.60;;
3953;SDS011;1991;48.682;9.030;2023-05-07T02:31:54;4.25;;;2.53;;
3953;SDS011;1991;48.682;9.030;2023-05-07T02:34:20;4.50;;;2.50;;
3953;SDS011;1991;48.682;9.030;2023-05-07T02:36:46;2.30;;;2.10;;
3953;SDS011;1991;48.682;9.030;2023-05-07T02:39:12;3.20;;;2.53;;
3953;SDS011;1991;48.682;9.030;2023-05-07T02:41:38;4.03;;;2.50;;
3953;SDS011;1991;48.682;9.030;2023-05-07T02:44:04;5.85;;;2.63;;
3953;SDS011;1991;48.682;9.030;2023-05-07T02:46:29;5.65;;;2.80;;
3953;SDS011;1991;48.682;9.030;2023-05-07T02:48:55;4.10;;;2.72;;
3953;SDS011;1991;48.682;9.030;2023-05-07T02:51:21;3.50;;;2.72;;
3953;SDS011;1991;48.682;9.030;2023-05-07T02:53:48;5.00;;;3.08;;
3953;SDS011;1991;48.682;9.030;2023-05-07T02:56:13;2.85;;;2.53;;
3953;SDS011;1991;48.682;9.030;2023-05-07T02:58:39;3.28;;;2.38;;
3953;SDS011;1991;48.682;9.030;2023-05-07T03:01:06;4.30;;;2.80;;
3953;SDS011;1991;48.682;9.030;2023-05-07T03:03:33;3.70;;;2.47;;
3953;SDS011;1991;48.682;9.030;2023-05-07T03:05:59;2.85;;;2.50;;
3953;SDS011;1991;48.682;9.030;2023-05-07T03:08:24;3.53;;;2.50;;
3953;SDS011;1991;48.682;9.030;2023-05-07T03:10:50;3.67;;;2.40;;
3953;SDS011;1991;48.682;9.030;2023-05-07T03:13:16;5.22;;;2.58;;
3953;SDS011;1991;48.682;9.030;2023-05-07T03:15:42;2.60;;;2.40;;
3953;SDS011;1991;48.682;9.030;2023-05-07T03:18:08;3.00;;;2.40;;
3953;SDS011;1991;48.682;9.030;2023-05-07T03:20:34;4.28;;;2.70;;
3953;SDS011;1991;48.682;9.030;2023-05-07T03:23:01;3.92;;;2.35;;
3953;SDS011;1991;48.682;9.030;2023-05-07T03:25:27;6.05;;;2.95;;
3953;SDS011;1991;48.682;9.030;2023-05-07T03:27:53;4.07;;;2.53;;
3953;SDS011;1991;48.682;9.030;2023-05-07T03:30:18;4.07;;;2.80;;
3953;SDS011;1991;48.682;9.030;2023-05-07T03:32:45;3.65;;;2.65;;
3953;SDS011;1991;48.682;9.030;2023-05-07T03:35:10;2.95;;;2.60;;
3953;SDS011;1991;48.682;9.030;2023-05-07T03:37:37;4.60;;;2.85;;
3953;SDS011;1991;48.682;9.030;2023-05-07T03:40:03;4.88;;;2.88;;
3953;SDS011;1991;48.682;9.030;2023-05-07T03:42:30;4.70;;;2.88;;
3953;SDS011;1991;48.682;9.030;2023-05-07T03:44:55;5.10;;;2.70;;
3953;SDS011;1991;48.682;9.030;2023-05-07T03:47:21;4.50;;;2.25;;
3953;SDS011;1991;48.682;9.030;2023-05-07T03:49:47;3.13;;;2.58;;
3953;SDS011;1991;48.682;9.030;2023-05-07T03:52:14;2.88;;;2.58;;
3953;SDS011;1991;48.682;9.030;2023-05-07T03:54:40;6.30;;;2.30;;
3953;SDS011;1991;48.682;9.030;2023-05-07T03:57:06;4.85;;;2.60;;
3953;SDS011;1991;48.682;9.030;2023-05-07T03:59:31;6.25;;;2.60;;
3953;SDS011;1991;48.682;9.030;2023-05-07T04:01:57;3.00;;;2.55;;
3953;SDS011;1991;48.682;9.030;2023-05-07T04:04:23;4.22;;;3.10;;
3953;SDS011;1991;48.682;9.030;2023-05-07T04:06:49;2.63;;;2.38;;
3953;SDS011;1991;48.682;9.030;2023-05-07T04:09:14;4.75;;;2.50;;
3953;SDS011;1991;48.682;9.030;2023-05-07T04:11:40;4.75;;;2.53;;
3953;SDS011;1991;48.682;9.030;2023-05-07T04:14:06;5.68;;;2.35;;
3953;SDS011;1991;48.682;9.030;2023-05-07T04:16:31;4.22;;;2.83;;
3953;SDS011;1991;48.682;9.030;2023-05-07T04:18:57;4.00;;;2.60;;
3953;SDS011;1991;48.682;9.030;2023-05-07T04:21:22;2.50;;;2.30;;
3953;SDS011;1991;48.682;9.030;2023-05-07T04:23:48;6.00;;;2.95;;
3953;SDS011;1991;48.682;9.030;2023-05-07T04:26:14;4.28;;;2.80;;
3953;SDS011;1991;48.682;9.030;2023-05-07T04:28:41;3.15;;;2.67;;
3953;SDS011;1991;48.682;9.030;2023-05-07T04:34:03;3.83;;;2.83;;
3953;SDS011;1991;48.682;9.030;2023-05-07T04:36:30;4.15;;;2.53;;
3953;SDS011;1991;48.682;9.030;2023-05-07T04:38:55;5.60;;;2.95;;
3953;SDS011;1991;48.682;9.030;2023-05-07T04:41:21;4.43;;;3.90;;
3953;SDS011;1991;48.682;9.030;2023-05-07T04:43:46;5.57;;;2.67;;
3953;SDS011;1991;48.682;9.030;2023-05-07T04:46:12;3.97;;;2.85;;
3953;SDS011;1991;48.682;9.030;2023-05-07T04:48:37;2.72;;;2.53;;
3953;SDS011;1991;48.682;9.030;2023-05-07T04:51:03;4.72;;;2.90;;
3953;SDS011;1991;48.682;9.030;2023-05-07T04:53:29;4.40;;;2.92;;
3953;SDS011;1991;48.682;9.030;2023-05-07T04:55:55;3.30;;;2.72;;
3953;SDS011;1991;48.682;9.030;2023-05-07T04:58:24;3.88;;;2.65;;
3953;SDS011;1991;48.682;9.030;2023-05-07T05:00:50;8.07;;;3.08;;
3953;SDS011;1991;48.682;9.030;2023-05-07T05:03:16;2.58;;;2.38;;
3953;SDS011;1991;48.682;9.030;2023-05-07T05:05:41;3.95;;;3.17;;
3953;SDS011;1991;48.682;9.030;2023-05-07T05:08:07;3.67;;;2.60;;
3953;SDS011;1991;48.682;9.030;2023-05-07T05:10:32;5.45;;;2.97;;
3953;SDS011;1991;48.682;9.030;2023-05-07T05:12:58;6.03;;;2.85;;
3953;SDS011;1991;48.682;9.030;2023-05-07T05:15:24;3.63;;;3.08;;
3953;SDS011;1991;48.682;9.030;2023-05-07T05:17:49;4.32;;;2.80;;
3953;SDS011;1991;48.682;9.030;2023-05-07T05:20:15;4.60;;;2.75;;
3953;SDS011;1991;48.682;9.030;2023-05-07T05:22:41;4.32;;;3.00;;
3953;SDS011;1991;48.682;9.030;2023-05-07T05:25:07;3.90;;;3.20;;
3953;SDS011;1991;48.682;9.030;2023-05-07T05:27:33;5.47;;;3.22;;
3953;SDS011;1991;48.682;9.030;2023-05-07T05:30:00;3.72;;;3.10;;
3953;SDS011;1991;48.682;9.030;2023-05-07T05:32:25;3.40;;;3.00;;
3953;SDS011;1991;48.682;9.030;2023-05-07T05:34:51;3.90;;;3.45;;
3953;SDS011;1991;48.682;9.030;2023-05-07T05:37:17;3.40;;;3.10;;
3953;SDS011;1991;48.682;9.030;2023-05-07T05:39:42;7.00;;;3.03;;
3953;SDS011;1991;48.682;9.030;2023-05-07T05:42:09;5.28;;;3.03;;
3953;SDS011;1991;48.682;9.030;2023-05-07T05:44:34;4.53;;;2.80;;
3953;SDS011;1991;48.682;9.030;2023-05-07T05:47:00;2.95;;;2.65;;
3953;SDS011;1991;48.682;9.030;2023-05-07T05:49:26;3.78;;;3.20;;
3953;SDS011;1991;48.682;9.030;2023-05-07T05:51:51;3.30;;;3.00;;
3953;SDS011;1991;48.682;9.030;2023-05-07T05:54:17;6.15;;;2.97;;
3953;SDS011;1991;48.682;9.030;2023-05-07T05:56:42;6.38;;;3.80;;
3953;SDS011;1991;48.682;9.030;2023-05-07T05:59:08;6.43;;;3.75;;
3953;SDS011;1991;48.682;9.030;2023-05-07T06:01:34;4.88;;;3.40;;
3953;SDS011;1991;48.682;9.030;2023-05-07T06:04:00;5.07;;;4.20;;
3953;SDS011;1991;48.682;9.030;2023-05-07T06:06:26;6.05;;;4.03;;
3953;SDS011;1991;48.682;9.030;2023-05-07T06:08:52;5.25;;;3.80;;
3953;SDS011;1991;48.682;9.030;2023-05-07T06:11:18;5.05;;;3.40;;
3953;SDS011;1991;48.682;9.030;2023-05-07T06:13:43;5.25;;;3.80;;
3953;SDS011;1991;48.682;9.030;2023-05-07T06:16:09;6.50;;;2.80;;
3953;SDS011;1991;48.682;9.030;2023-05-07T06:18:34;2.83;;;2.53;;
3953;SDS011;1991;48.682;9.030;2023-05-07T06:21:03;3.58;;;3.20;;
3953;SDS011;1991;48.682;9.030;2023-05-07T06:23:29;5.07;;;2.85;;
3953;SDS011;1991;48.682;9.030;2023-05-07T06:25:55;8.05;;;2.88;;
3953;SDS011;1991;48.682;9.030;2023-05-07T06:28:21;6.22;;;2.60;;
3953;SDS011;1991;48.682;9.030;2023-05-07T06:30:46;2.70;;;2.50;;
3953;SDS011;1991;48.682;9.030;2023-05-07T06:33:13;2.95;;;2.15;;
3953;SDS011;1991;48.682;9.030;2023-05-07T06:35:39;2.80;;;2.47;;
3953;SDS011;1991;48.682;9.030;2023-05-07T06:38:05;4.28;;;2.00;;
3953;SDS011;1991;48.682;9.030;2023-05-07T06:43:52;3.42;;;2.40;;
3953;SDS011;1991;48.682;9.030;2023-05-07T06:46:18;4.60;;;2.38;;
3953;SDS011;1991;48.682;9.030;2023-05-07T06:48:43;3.78;;;2.13;;
3953;SDS011;1991;48.682;9.030;2023-05-07T06:51:09;2.85;;;2.10;;
3953;SDS011;1991;48.682;9.030;2023-05-07T06:53:35;3.55;;;2.20;;
3953;SDS011;1991;48.682;9.030;2023-05-07T06:56:00;3.15;;;2.20;;
3953;SDS011;1991;48.682;9.030;2023-05-07T06:58:26;2.58;;;2.20;;
3953;SDS011;1991;48.682;9.030;2023-05-07T07:00:52;3.88;;;2.20;;
3953;SDS011;1991;48.682;9.030;2023-05-07T07:03:17;2.60;;;2.03;;
3953;SDS011;1991;48.682;9.030;2023-05-07T07:05:43;6.38;;;2.22;;
3953;SDS011;1991;48.682;9.030;2023-05-07T07:08:09;3.67;;;2.15;;
3953;SDS011;1991;48.682;9.030;2023-05-07T07:10:35;2.80;;;2.40;;
3953;SDS011;1991;48.682;9.030;2023-05-07T07:13:01;3.75;;;2.75;;
3953;SDS011;1991;48.682;9.030;2023-05-07T07:15:26;4.90;;;2.53;;
3953;SDS011;1991;48.682;9.030;2023-05-07T07:17:52;4.05;;;2.33;;
3953;SDS011;1991;48.682;9.030;2023-05-07T07:20:18;3.78;;;2.08;;
3953;SDS011;1991;48.682;9.030;2023-05-07T07:22:43;3.05;;;2.55;;
3953;SDS011;1991;48.682;9.030;2023-05-07T07:25:09;2.50;;;2.30;;
3953;SDS011;1991;48.682;9.030;2023-05-07T07:27:36;6.95;;;2.78;;
3953;SDS011;1991;48.682;9.030;2023-05-07T07:30:02;4.55;;;2.47;;
3953;SDS011;1991;48.682;9.030;2023-05-07T07:32:27;3.53;;;2.65;;
3953;SDS011;1991;48.682;9.030;2023-05-07T07:34:53;3.70;;;2.47;;
3953;SDS011;1991;48.682;9.030;2023-05-07T07:37:19;2.40;;;1.95;;
3953;SDS011;1991;48.682;9.030;2023-05-07T07:39:45;3.35;;;2.58;;
3953;SDS011;1991;48.682;9.030;2023-05-07T07:42:10;2.80;;;2.47;;
3953;SDS011;1991;48.682;9.030;2023-05-07T07:44:36;4.65;;;2.50;;
3953;SDS011;1991;48.682;9.030;2023-05-07T07:47:01;3.75;;;2.33;;
3953;SDS011;1991;48.682;9.030;2023-05-07T07:49:27;3.50;;;2.40;;
3953;SDS011;1991;48.682;9.030;2023-05-07T07:51:53;4.43;;;2.45;;
3953;SDS011;1991;48.682;9.030;2023-05-07T07:54:18;5.32;;;2.00;;
3953;SDS011;1991;48.682;9.030;2023-05-07T07:56:44;3.30;;;1.98;;
3953;SDS011;1991;48.682;9.030;2023-05-07T07:59:10;2.05;;;1.85;;
3953;SDS011;1991;48.682;9.030;2023-05-07T08:01:35;2.42;;;2.00;;
3953;SDS011;1991;48.682;9.030;2023-05-07T08:04:01;5.25;;;1.92;;
3953;SDS011;1991;48.682;9.030;2023-05-07T08:06:28;3.35;;;2.10;;
3953;SDS011;1991;48.682;9.030;2023-05-07T08:08:54;2.45;;;1.85;;
3953;SDS011;1991;48.682;9.030;2023-05-07T08:11:20;2.10;;;1.60;;
3953;SDS011;1991;48.682;9.030;2023-05-07T08:13:46;1.77;;;1.58;;
3953;SDS011;1991;48.682;9.030;2023-05-07T08:16:12;2.10;;;1.63;;
3953;SDS011;1991;48.682;9.030;2023-05-07T08:18:38;2.13;;;1.83;;
3953;SDS011;1991;48.682;9.030;2023-05-07T08:21:03;2.08;;;1.85;;
3953;SDS011;1991;48.682;9.030;2023-05-07T08:23:29;4.55;;;1.67;;
3953;SDS011;1991;48.682;9.030;2023-05-07T08:25:55;2.53;;;1.80;;
3953;SDS011;1991;48.682;9.030;2023-05-07T08:28:21;3.88;;;2.22;;
3953;SDS011;1991;48.682;9.030;2023-05-07T08:30:46;3.28;;;1.67;;
3953;SDS011;1991;48.682;9.030;2023-05-07T08:33:12;4.18;;;1.95;;
3953;SDS011;1991;48.682;9.030;2023-05-07T08:35:38;2.20;;;1.55;;
3953;SDS011;1991;48.682;9.030;2023-05-07T08:38:03;4.78;;;1.80;;
3953;SDS011;1991;48.682;9.030;2023-05-07T08:40:29;5.93;;;2.08;;
3953;SDS011;1991;48.682;9.030;2023-05-07T08:43:01;3.53;;;1.52;;
3953;SDS011;1991;48.682;9.030;2023-05-07T08:45:27;2.88;;;1.77;;
3953;SDS011;1991;48.682;9.030;2023-05-07T08:47:58;1.77;;;1.50;;
3953;SDS011;1991;48.682;9.030;2023-05-07T08:50:25;4.97;;;1.58;;
3953;SDS011;1991;48.682;9.030;2023-05-07T08:52:50;4.63;;;1.75;;
3953;SDS011;1991;48.682;9.030;2023-05-07T08:55:16;1.63;;;1.42;;
3953;SDS011;1991;48.682;9.030;2023-05-07T08:57:42;2.45;;;1.65;;
3953;SDS011;1991;48.682;9.030;2023-05-07T09:00:08;4.40;;;1.80;;
3953;SDS011;1991;48.682;9.030;2023-05-07T09:02:35;2.20;;;1.48;;
3953;SDS011;1991;48.682;9.030;2023-05-07T09:05:01;2.28;;;1.30;;
3953;SDS011;1991;48.682;9.030;2023-05-07T09:07:27;2.70;;;1.70;;
3953;SDS011;1991;48.682;9.030;2023-05-07T09:09:52;2.10;;;1.58;;
3953;SDS011;1991;48.682;9.030;2023-05-07T09:12:20;2.97;;;1.70;;
3953;SDS011;1991;48.682;9.030;2023-05-07T09:14:46;3.17;;;1.75;;
3953;SDS011;1991;48.682;9.030;2023-05-07T09:17:12;2.13;;;1.60;;
3953;SDS011;1991;48.682;9.030;2023-05-07T09:19:38;2.28;;;1.60;;
3953;SDS011;1991;48.682;9.030;2023-05-07T09:22:05;2.70;;;1.77;;
3953;SDS011;1991;48.682;9.030;2023-05-07T09:24:34;3.15;;;2.05;;
3953;SDS011;1991;48.682;9.030;2023-05-07T09:27:02;1.63;;;1.52;;
3953;SDS011;1991;48.682;9.030;2023-05-07T09:29:31;2.15;;;1.92;;
3953;SDS011;1991;48.682;9.030;2023-05-07T09:32:09;3.22;;;1.30;;
3953;SDS011;1991;48.682;9.030;2023-05-07T09:34:35;2.30;;;1.80;;
3953;SDS011;1991;48.682;9.030;2023-05-07T09:37:04;2.65;;;1.63;;
3953;SDS011;1991;48.682;9.030;2023-05-07T09:39:42;4.25;;;2.20;;
3953;SDS011;1991;48.682;9.030;2023-05-07T09:42:08;3.55;;;1.70;;
3953;SDS011;1991;48.682;9.030;2023-05-07T09:44:34;2.65;;;1.70;;
3953;SDS011;1991;48.682;9.030;2023-05-07T09:47:01;2.67;;;2.17;;
3953;SDS011;1991;48.682;9.030;2023-05-07T09:49:29;2.63;;;1.75;;
3953;SDS011;1991;48.682;9.030;2023-05-07T09:51:57;3.85;;;1.85;;
3953;SDS011;1991;48.682;9.030;2023-05-07T09:54:25;2.97;;;1.75;;
3953;SDS011;1991;48.682;9.030;2023-05-07T09:56:53;2.38;;;1.80;;
3953;SDS011;1991;48.682;9.030;2023-05-07T09:59:20;3.53;;;1.83;;
3953;SDS011;1991;48.682;9.030;2023-05-07T10:01:47;7.45;;;1.92;;
3953;SDS011;1991;48.682;9.030;2023-05-07T10:04:14;4.88;;;1.80;;
3953;SDS011;1991;48.682;9.030;2023-05-07T10:06:40;3.55;;;1.90;;
3953;SDS011;1991;48.682;9.030;2023-05-07T10:09:06;4.50;;;1.77;;
3953;SDS011;1991;48.682;9.030;2023-05-07T10:11:35;3.20;;;1.80;;
3953;SDS011;1991;48.682;9.030;2023-05-07T10:14:02;3.67;;;1.67;;
3953;SDS011;1991;48.682;9.030;2023-05-07T10:16:32;4.95;;;1.65;;
3953;SDS011;1991;48.682;9.030;2023-05-07T10:19:06;4.30;;;1.88;;
3953;SDS011;1991;48.682;9.030;2023-05-07T10:21:36;2.08;;;1.77;;
3953;SDS011;1991;48.682;9.030;2023-05-07T10:24:04;4.05;;;2.20;;
3953;SDS011;1991;48.682;9.030;2023-05-07T10:26:40;2.90;;;1.70;;
3953;SDS011;1991;48.682;9.030;2023-05-07T10:29:14;3.13;;;1.80;;
3953;SDS011;1991;48.682;9.030;2023-05-07T10:31:52;3.78;;;1.70;;
3953;SDS011;1991;48.682;9.030;2023-05-07T10:34:43;4.35;;;2.40;;
3953;SDS011;1991;48.682;9.030;2023-05-07T10:37:12;2.83;;;1.67;;
3953;SDS011;1991;48.682;9.030;2023-05-07T10:39:38;3.60;;;2.10;;
3953;SDS011;1991;48.682;9.030;2023-05-07T10:42:08;2.97;;;1.95;;
3953;SDS011;1991;48.682;9.030;2023-05-07T10:44:35;3.72;;;1.65;;
3953;SDS011;1991;48.682;9.030;2023-05-07T10:47:05;5.88;;;1.65;;
3953;SDS011;1991;48.682;9.030;2023-05-07T10:49:38;3.17;;;1.70;;
3953;SDS011;1991;48.682;9.030;2023-05-07T10:52:40;1.65;;;1.23;;
3953;SDS011;1991;48.682;9.030;2023-05-07T10:57:44;2.38;;;1.58;;
3953;SDS011;1991;48.682;9.030;2023-05-07T11:00:55;3.85;;;1.48;;
3953;SDS011;1991;48.682;9.030;2023-05-07T11:05:25;5.45;;;1.65;;
3953;SDS011;1991;48.682;9.030;2023-05-07T11:08:02;2.25;;;1.30;;
3953;SDS011;1991;48.682;9.030;2023-05-07T11:16:22;2.55;;;1.52;;
3953;SDS011;1991;48.682;9.030;2023-05-07T11:18:49;2.35;;;1.70;;
3953;SDS011;1991;48.682;9.030;2023-05-07T11:24:01;2.20;;;1.63;;
3953;SDS011;1991;48.682;9.030;2023-05-07T11:26:29;1.90;;;1.70;;
3953;SDS011;1991;48.682;9.030;2023-05-07T11:28:56;3.92;;;1.33;;
3953;SDS011;1991;48.682;9.030;2023-05-07T11:31:24;3.35;;;1.90;;
3953;SDS011;1991;48.682;9.030;2023-05-07T11:33:51;2.65;;;1.70;;
3953;SDS011;1991;48.682;9.030;2023-05-07T11:36:18;2.17;;;1.70;;
3953;SDS011;1991;48.682;9.030;2023-05-07T11:38:45;4.90;;;1.70;;
3953;SDS011;1991;48.682;9.030;2023-05-07T11:41:11;4.50;;;1.92;;
3953;SDS011;1991;48.682;9.030;2023-05-07T11:43:36;4.80;;;1.52;;
3953;SDS011;1991;48.682;9.030;2023-05-07T11:46:08;2.50;;;1.50;;
3953;SDS011;1991;48.682;9.030;2023-05-07T11:48:35;2.42;;;1.50;;
3953;SDS011;1991;48.682;9.030;2023-05-07T11:51:01;3.15;;;1.80;;
3953;SDS011;1991;48.682;9.030;2023-05-07T11:53:35;3.53;;;2.20;;
3953;SDS011;1991;48.682;9.030;2023-05-07T11:56:05;2.47;;;1.65;;
3953;SDS011;1991;48.682;9.030;2023-05-07T11:58:35;2.28;;;1.58;;
3953;SDS011;1991;48.682;9.030;2023-05-07T12:01:01;3.78;;;1.95;;
3953;SDS011;1991;48.682;9.030;2023-05-07T12:03:27;2.47;;;2.20;;
3953;SDS011;1991;48.682;9.030;2023-05-07T12:05:53;4.55;;;1.60;;
3953;SDS011;1991;48.682;9.030;2023-05-07T12:08:19;5.32;;;1.50;;
3953;SDS011;1991;48.682;9.030;2023-05-07T12:10:47;0.98;;;0.63;;
3953;SDS011;1991;48.682;9.030;2023-05-07T12:15:43;0.55;;;0.40;;
3953;SDS011;1991;48.682;9.030;2023-05-07T12:18:09;2.95;;;0.80;;
3953;SDS011;1991;48.682;9.030;2023-05-07T12:20:38;0.70;;;0.50;;
3953;SDS011;1991;48.682;9.030;2023-05-07T12:23:04;0.68;;;0.50;;
3953;SDS011;1991;48.682;9.030;2023-05-07T12:25:37;2.25;;;0.70;;
3953;SDS011;1991;48.682;9.030;2023-05-07T12:28:03;0.73;;;0.60;;
3953;SDS011;1991;48.682;9.030;2023-05-07T12:30:39;1.50;;;0.98;;
3953;SDS011;1991;48.682;9.030;2023-05-07T12:33:05;1.48;;;1.00;;
3953;SDS011;1991;48.682;9.030;2023-05-07T12:35:32;4.53;;;1.40;;
3953;SDS011;1991;48.682;9.030;2023-05-07T12:38:01;2.97;;;1.00;;
3953;SDS011;1991;48.682;9.030;2023-05-07T12:40:42;2.60;;;1.70;;
3953;SDS011;1991;48.682;9.030;2023-05-07T12:43:17;4.57;;;1.92;;
3953;SDS011;1991;48.682;9.030;2023-05-07T12:45:49;4.57;;;2.08;;
3953;SDS011;1991;48.682;9.030;2023-05-07T12:48:16;9.32;;;3.03;;
3953;SDS011;1991;48.682;9.030;2023-05-07T12:50:42;9.88;;;3.03;;
3953;SDS011;1991;48.682;9.030;2023-05-07T12:53:09;11.15;;;2.85;;
3953;SDS011;1991;48.682;9.030;2023-05-07T12:55:40;10.10;;;3.55;;
3953;SDS011;1991;48.682;9.030;2023-05-07T12:58:07;8.38;;;3.08;;
3953;SDS011;1991;48.682;9.030;2023-05-07T13:00:37;7.25;;;2.60;;
3953;SDS011;1991;48.682;9.030;2023-05-07T13:03:03;8.65;;;2.63;;
3953;SDS011;1991;48.682;9.030;2023-05-07T13:05:30;5.50;;;2.20;;
3953;SDS011;1991;48.682;9.030;2023-05-07T13:07:56;6.82;;;2.00;;
3953;SDS011;1991;48.682;9.030;2023-05-07T13:10:22;6.88;;;2.95;;
3953;SDS011;1991;48.682;9.030;2023-05-07T13:12:49;5.40;;;2.28;;
3953;SDS011;1991;48.682;9.030;2023-05-07T13:15:15;5.65;;;2.20;;
3953;SDS011;1991;48.682;9.030;2023-05-07T13:17:41;5.90;;;2.97;;
3953;SDS011;1991;48.682;9.030;2023-05-07T13:20:08;6.15;;;2.95;;
3953;SDS011;1991;48.682;9.030;2023-05-07T13:22:35;7.20;;;2.60;;
3953;SDS011;1991;48.682;9.030;2023-05-07T13:25:01;3.90;;;2.15;;
3953;SDS011;1991;48.682;9.030;2023-05-07T13:27:26;7.78;;;2.05;;
3953;SDS011;1991;48.682;9.030;2023-05-07T13:29:52;3.47;;;2.13;;
3953;SDS011;1991;48.682;9.030;2023-05-07T13:32:17;4.85;;;2.05;;
3953;SDS011;1991;48.682;9.030;2023-05-07T13:34:43;5.60;;;1.98;;
3953;SDS011;1991;48.682;9.030;2023-05-07T13:37:09;2.28;;;1.90;;
3953;SDS011;1991;48.682;9.030;2023-05-07T13:39:35;4.63;;;1.90;;
3953;SDS011;1991;48.682;9.030;2023-05-07T13:42:01;2.90;;;1.63;;
3953;SDS011;1991;48.682;9.030;2023-05-07T13:44:27;3.97;;;2.20;;
3953;SDS011;1991;48.682;9.030;2023-05-07T13:46:52;3.45;;;2.30;;
3953;SDS011;1991;48.682;9.030;2023-05-07T13:49:18;5.00;;;2.85;;
3953;SDS011;1991;48.682;9.030;2023-05-07T13:51:43;5.30;;;3.00;;
3953;SDS011;1991;48.682;9.030;2023-05-07T13:54:09;4.68;;;2.20;;
3953;SDS011;1991;48.682;9.030;2023-05-07T13:56:34;10.00;;;2.65;;
3953;SDS011;1991;48.682;9.030;2023-05-07T13:59:00;5.53;;;2.28;;
3953;SDS011;1991;48.682;9.030;2023-05-07T14:01:26;8.48;;;3.05;;
3953;SDS011;1991;48.682;9.030;2023-05-07T14:03:52;5.55;;;2.53;;
3953;SDS011;1991;48.682;9.030;2023-05-07T14:06:17;6.18;;;2.50;;
3953;SDS011;1991;48.682;9.030;2023-05-07T14:08:43;5.15;;;2.95;;
3953;SDS011;1991;48.682;9.030;2023-05-07T14:11:09;5.28;;;2.17;;
3953;SDS011;1991;48.682;9.030;2023-05-07T14:13:34;4.63;;;2.22;;
3953;SDS011;1991;48.682;9.030;2023-05-07T14:16:00;5.72;;;2.30;;
3953;SDS011;1991;48.682;9.030;2023-05-07T14:18:26;5.45;;;2.22;;
3953;SDS011;1991;48.682;9.030;2023-05-07T14:20:53;4.85;;;2.35;;
3953;SDS011;1991;48.682;9.030;2023-05-07T14:23:19;4.22;;;1.98;;
3953;SDS011;1991;48.682;9.030;2023-05-07T14:25:47;5.85;;;2.10;;
3953;SDS011;1991;48.682;9.030;2023-05-07T14:28:12;4.43;;;2.08;;
3953;SDS011;1991;48.682;9.030;2023-05-07T14:30:38;1.83;;;1.70;;
3953;SDS011;1991;48.682;9.030;2023-05-07T14:33:04;3.03;;;1.83;;
3953;SDS011;1991;48.682;9.030;2023-05-07T14:35:30;2.95;;;1.67;;
3953;SDS011;1991;48.682;9.030;2023-05-07T14:37:55;3.00;;;1.80;;
3953;SDS011;1991;48.682;9.030;2023-05-07T14:40:21;3.03;;;1.65;;
3953;SDS011;1991;48.682;9.030;2023-05-07T14:42:48;3.17;;;2.25;;
3953;SDS011;1991;48.682;9.030;2023-05-07T14:45:14;2.75;;;1.75;;
3953;SDS011;1991;48.682;9.030;2023-05-07T14:47:39;3.40;;;2.05;;
3953;SDS011;1991;48.682;9.030;2023-05-07T14:50:05;4.25;;;1.58;;
3953;SDS011;1991;48.682;9.030;2023-05-07T14:52:31;2.95;;;1.88;;
3953;SDS011;1991;48.682;9.030;2023-05-07T14:54:56;2.90;;;1.65;;
3953;SDS011;1991;48.682;9.030;2023-05-07T14:57:22;2.33;;;1.58;;
3953;SDS011;1991;48.682;9.030;2023-05-07T14:59:47;4.53;;;2.15;;
3953;SDS011;1991;48.682;9.030;2023-05-07T15:02:14;2.05;;;1.40;;
3953;SDS011;1991;48.682;9.030;2023-05-07T15:04:40;4.43;;;1.73;;
3953;SDS011;1991;48.682;9.030;2023-05-07T15:07:11;5.03;;;1.58;;
3953;SDS011;1991;48.682;9.030;2023-05-07T15:09:39;2.58;;;1.90;;
3953;SDS011;1991;48.682;9.030;2023-05-07T15:12:08;6.32;;;2.05;;
3953;SDS011;1991;48.682;9.030;2023-05-07T15:14:34;2.85;;;1.77;;
3953;SDS011;1991;48.682;9.030;2023-05-07T15:17:00;3.90;;;1.92;;
3953;SDS011;1991;48.682;9.030;2023-05-07T15:19:26;7.70;;;2.13;;
3953;SDS011;1991;48.682;9.030;2023-05-07T15:21:54;3.75;;;2.22;;
3953;SDS011;1991;48.682;9.030;2023-05-07T15:24:24;2.25;;;1.85;;
3953;SDS011;1991;48.682;9.030;2023-05-07T15:26:51;4.72;;;2.05;;
3953;SDS011;1991;48.682;9.030;2023-05-07T15:29:17;3.40;;;2.00;;
3953;SDS011;1991;48.682;9.030;2023-05-07T15:31:43;3.45;;;2.53;;
3953;SDS011;1991;48.682;9.030;2023-05-07T15:34:09;3.97;;;2.42;;
3953;SDS011;1991;48.682;9.030;2023-05-07T15:36:35;2.80;;;2.05;;
3953;SDS011;1991;48.682;9.030;2023-05-07T15:39:00;3.35;;;2.15;;